sensor_id;sensor_type;location;lat;lon;timestamp;pressure;altitude;pressure_sealevel;temperature;humidity
79589;BME280;69067;51.930;4.492;2023-06-26T00:02:19;101192.50;;;31.81;35.53
79589;BME280;69067;51.930;4.492;2023-06-26T00:04:45;101183.63;;;31.79;35.75
79589;BME280;69067;51.930;4.492;2023-06-26T00:07:11;101184.13;;;31.76;35.64
79589;BME280;69067;51.930;4.492;2023-06-26T00:09:37;101192.50;;;31.81;35.44
79589;BME280;69067;51.930;4.492;2023-06-26T00:12:03;101185.03;;;31.81;35.90
79589;BME280;69067;51.930;4.492;2023-06-26T00:14:29;101193.47;;;31.75;35.80
79589;BME280;69067;51.930;4.492;2023-06-26T00:16:55;101217.84;;;31.83;35.89
79589;BME280;69067;51.930;4.492;2023-06-26T00:19:21;101219.69;;;31.77;35.69
79589;BME280;69067;51.930;4.492;2023-06-26T00:21:47;101215.25;;;31.76;35.88
79589;BME280;69067;51.930;4.492;2023-06-26T00:24:14;101214.19;;;31.77;35.89
79589;BME280;69067;51.930;4.492;2023-06-26T00:26:40;101210.78;;;31.70;35.77
79589;BME280;69067;51.930;4.492;2023-06-26T00:29:06;101220.19;;;31.74;35.43
79589;BME280;69067;51.930;4.492;2023-06-26T00:31:32;101223.53;;;31.76;35.75
79589;BME280;69067;51.930;4.492;2023-06-26T00:33:57;101224.38;;;31.77;36.05
79589;BME280;69067;51.930;4.492;2023-06-26T00:36:23;101219.09;;;31.75;35.74
79589;BME280;69067;51.930;4.492;2023-06-26T00:38:49;101213.53;;;31.70;35.48
79589;BME280;69067;51.930;4.492;2023-06-26T00:41:15;101214.88;;;31.67;35.83
79589;BME280;69067;51.930;4.492;2023-06-26T00:43:41;101217.72;;;31.73;36.40
79589;BME280;69067;51.930;4.492;2023-06-26T00:46:12;101217.91;;;31.66;36.00
79589;BME280;69067;51.930;4.492;2023-06-26T00:48:41;101226.22;;;31.71;36.32
79589;BME280;69067;51.930;4.492;2023-06-26T00:51:09;101218.72;;;31.66;35.59
79589;BME280;69067;51.930;4.492;2023-06-26T00:53:36;101225.38;;;31.71;35.88
79589;BME280;69067;51.930;4.492;2023-06-26T00:56:02;101219.56;;;31.67;36.11
79589;BME280;69067;51.930;4.492;2023-06-26T00:58:28;101233.66;;;31.71;35.93
79589;BME280;69067;51.930;4.492;2023-06-26T01:00:54;101224.78;;;31.68;36.33
79589;BME280;69067;51.930;4.492;2023-06-26T01:03:22;101220.66;;;31.66;36.28
79589;BME280;69067;51.930;4.492;2023-06-26T01:05:52;101227.56;;;31.68;35.41
79589;BME280;69067;51.930;4.492;2023-06-26T01:08:19;101233.06;;;31.68;35.74
79589;BME280;69067;51.930;4.492;2023-06-26T01:10:46;101223.13;;;31.67;35.97
79589;BME280;69067;51.930;4.492;2023-06-26T01:13:14;101236.88;;;31.67;35.84
79589;BME280;69067;51.930;4.492;2023-06-26T01:15:40;101237.72;;;31.68;36.01
79589;BME280;69067;51.930;4.492;2023-06-26T01:18:07;101218.38;;;31.63;35.75
79589;BME280;69067;51.930;4.492;2023-06-26T01:20:37;101224.25;;;31.66;36.43
79589;BME280;69067;51.930;4.492;2023-06-26T01:28:45;101222.56;;;31.65;36.16
79589;BME280;69067;51.930;4.492;2023-06-26T01:31:13;101220.91;;;31.64;35.91
79589;BME280;69067;51.930;4.492;2023-06-26T01:33:41;101206.53;;;31.62;35.83
79589;BME280;69067;51.930;4.492;2023-06-26T01:36:07;101204.53;;;31.58;35.78
79589;BME280;69067;51.930;4.492;2023-06-26T01:38:33;101215.03;;;31.61;36.29
79589;BME280;69067;51.930;4.492;2023-06-26T01:41:00;101226.06;;;31.61;36.28
79589;BME280;69067;51.930;4.492;2023-06-26T01:49:54;101233.25;;;31.62;36.70
79589;BME280;69067;51.930;4.492;2023-06-26T01:52:42;101233.72;;;31.59;36.38
79589;BME280;69067;51.930;4.492;2023-06-26T01:55:24;101234.56;;;31.59;36.01
79589;BME280;69067;51.930;4.492;2023-06-26T01:57:59;101235.16;;;31.61;36.83
79589;BME280;69067;51.930;4.492;2023-06-26T02:00:26;101220.16;;;31.52;36.24
79589;BME280;69067;51.930;4.492;2023-06-26T02:02:52;101239.22;;;31.59;36.18
79589;BME280;69067;51.930;4.492;2023-06-26T02:05:18;101231.72;;;31.54;36.24
79589;BME280;69067;51.930;4.492;2023-06-26T02:07:44;101229.06;;;31.59;36.52
79589;BME280;69067;51.930;4.492;2023-06-26T02:10:10;101229.31;;;31.58;36.54
79589;BME280;69067;51.930;4.492;2023-06-26T02:12:37;101233.38;;;31.55;36.39
79589;BME280;69067;51.930;4.492;2023-06-26T02:15:03;101235.66;;;31.58;37.01
79589;BME280;69067;51.930;4.492;2023-06-26T02:17:30;101245.91;;;31.63;35.94
79589;BME280;69067;51.930;4.492;2023-06-26T02:19:56;101246.56;;;31.53;36.60
79589;BME280;69067;51.930;4.492;2023-06-26T02:22:22;101247.16;;;31.55;36.90
79589;BME280;69067;51.930;4.492;2023-06-26T02:24:48;101248.22;;;31.54;37.33
79589;BME280;69067;51.930;4.492;2023-06-26T02:27:14;101247.41;;;31.54;37.16
79589;BME280;69067;51.930;4.492;2023-06-26T02:29:40;101254.81;;;31.53;36.47
79589;BME280;69067;51.930;4.492;2023-06-26T02:32:07;101250.44;;;31.52;36.19
79589;BME280;69067;51.930;4.492;2023-06-26T02:34:33;101249.59;;;31.52;36.33
79589;BME280;69067;51.930;4.492;2023-06-26T02:36:59;101275.19;;;31.52;36.92
79589;BME280;69067;51.930;4.492;2023-06-26T02:39:26;101274.09;;;31.53;36.74
79589;BME280;69067;51.930;4.492;2023-06-26T02:41:52;101261.09;;;31.49;36.54
79589;BME280;69067;51.930;4.492;2023-06-26T02:44:18;101251.16;;;31.48;36.82
79589;BME280;69067;51.930;4.492;2023-06-26T02:46:44;101270.78;;;31.51;36.50
79589;BME280;69067;51.930;4.492;2023-06-26T02:49:10;101271.84;;;31.50;37.25
79589;BME280;69067;51.930;4.492;2023-06-26T02:51:36;101263.84;;;31.49;36.99
79589;BME280;69067;51.930;4.492;2023-06-26T02:54:02;101269.09;;;31.50;36.87
79589;BME280;69067;51.930;4.492;2023-06-26T02:56:28;101268.75;;;31.47;36.03
79589;BME280;69067;51.930;4.492;2023-06-26T02:58:56;101276.78;;;31.48;36.76
79589;BME280;69067;51.930;4.492;2023-06-26T03:01:22;101278.44;;;31.49;36.33
79589;BME280;69067;51.930;4.492;2023-06-26T03:03:48;101293.28;;;31.48;37.00
79589;BME280;69067;51.930;4.492;2023-06-26T03:06:15;101292.44;;;31.48;36.92
79589;BME280;69067;51.930;4.492;2023-06-26T03:08:41;101282.53;;;31.47;36.39
79589;BME280;69067;51.930;4.492;2023-06-26T03:11:08;101296.03;;;31.48;35.93
79589;BME280;69067;51.930;4.492;2023-06-26T03:13:35;101297.97;;;31.48;37.03
79589;BME280;69067;51.930;4.492;2023-06-26T03:16:02;101299.31;;;31.45;35.96
79589;BME280;69067;51.930;4.492;2023-06-26T03:18:29;101302.31;;;31.44;36.88
79589;BME280;69067;51.930;4.492;2023-06-26T03:20:56;101312.00;;;31.46;36.41
79589;BME280;69067;51.930;4.492;2023-06-26T03:23:23;101312.47;;;31.43;35.97
79589;BME280;69067;51.930;4.492;2023-06-26T03:25:50;101308.66;;;31.44;36.12
79589;BME280;69067;51.930;4.492;2023-06-26T03:28:16;101308.28;;;31.41;36.61
79589;BME280;69067;51.930;4.492;2023-06-26T03:30:42;101313.56;;;31.42;36.31
79589;BME280;69067;51.930;4.492;2023-06-26T03:33:08;101311.66;;;31.43;36.19
79589;BME280;69067;51.930;4.492;2023-06-26T03:35:34;101314.88;;;31.40;36.99
79589;BME280;69067;51.930;4.492;2023-06-26T03:38:01;101307.47;;;31.40;36.82
79589;BME280;69067;51.930;4.492;2023-06-26T03:40:28;101307.97;;;31.37;36.48
79589;BME280;69067;51.930;4.492;2023-06-26T03:42:54;101319.81;;;31.38;36.55
79589;BME280;69067;51.930;4.492;2023-06-26T03:45:20;101323.41;;;31.38;36.89
79589;BME280;69067;51.930;4.492;2023-06-26T03:47:46;101307.91;;;31.32;36.16
79589;BME280;69067;51.930;4.492;2023-06-26T03:50:19;101321.75;;;31.37;35.91
79589;BME280;69067;51.930;4.492;2023-06-26T03:52:45;101328.31;;;31.36;36.66
79589;BME280;69067;51.930;4.492;2023-06-26T03:55:11;101316.16;;;31.32;35.90
79589;BME280;69067;51.930;4.492;2023-06-26T03:57:37;101322.81;;;31.36;36.46
79589;BME280;69067;51.930;4.492;2023-06-26T04:00:03;101324.97;;;31.34;36.48
79589;BME280;69067;51.930;4.492;2023-06-26T04:02:37;101330.16;;;31.30;36.15
79589;BME280;69067;51.930;4.492;2023-06-26T04:05:04;101326.91;;;31.34;35.80
79589;BME280;69067;51.930;4.492;2023-06-26T04:07:30;101328.72;;;31.28;36.15
79589;BME280;69067;51.930;4.492;2023-06-26T04:09:57;101339.50;;;31.29;35.86
79589;BME280;69067;51.930;4.492;2023-06-26T04:12:25;101346.91;;;31.29;36.20
79589;BME280;69067;51.930;4.492;2023-06-26T04:14:51;101351.34;;;31.30;36.00
79589;BME280;69067;51.930;4.492;2023-06-26T04:17:16;101357.91;;;31.29;35.41
79589;BME280;69067;51.930;4.492;2023-06-26T04:19:42;101355.66;;;31.26;35.73
79589;BME280;69067;51.930;4.492;2023-06-26T04:22:08;101367.16;;;31.23;35.68
79589;BME280;69067;51.930;4.492;2023-06-26T04:24:34;101369.09;;;31.22;36.00
79589;BME280;69067;51.930;4.492;2023-06-26T04:26:59;101366.34;;;31.22;35.76
79589;BME280;69067;51.930;4.492;2023-06-26T04:29:28;101379.00;;;31.23;35.77
79589;BME280;69067;51.930;4.492;2023-06-26T04:31:54;101371.00;;;31.22;36.34
79589;BME280;69067;51.930;4.492;2023-06-26T04:34:27;101365.50;;;31.22;36.45
79589;BME280;69067;51.930;4.492;2023-06-26T04:36:54;101375.44;;;31.23;35.29
79589;BME280;69067;51.930;4.492;2023-06-26T04:39:20;101380.94;;;31.23;36.27
79589;BME280;69067;51.930;4.492;2023-06-26T04:41:46;101393.84;;;31.22;36.08
79589;BME280;69067;51.930;4.492;2023-06-26T04:44:12;101385.25;;;31.19;36.00
79589;BME280;69067;51.930;4.492;2023-06-26T04:46:38;101380.84;;;31.18;35.46
79589;BME280;69067;51.930;4.492;2023-06-26T04:49:09;101401.50;;;31.20;35.59
79589;BME280;69067;51.930;4.492;2023-06-26T04:51:36;101401.75;;;31.19;36.34
79589;BME280;69067;51.930;4.492;2023-06-26T04:54:07;101404.50;;;31.19;35.86
79589;BME280;69067;51.930;4.492;2023-06-26T04:56:33;101404.50;;;31.19;36.09
79589;BME280;69067;51.930;4.492;2023-06-26T04:58:59;101399.41;;;31.11;35.88
79589;BME280;69067;51.930;4.492;2023-06-26T05:01:26;101409.66;;;31.15;35.98
79589;BME280;69067;51.930;4.492;2023-06-26T05:03:55;101407.75;;;31.16;35.66
79589;BME280;69067;51.930;4.492;2023-06-26T05:06:22;101413.84;;;31.18;35.24
79589;BME280;69067;51.930;4.492;2023-06-26T05:08:48;101414.00;;;31.11;35.83
79589;BME280;69067;51.930;4.492;2023-06-26T05:11:14;101413.41;;;31.09;35.18
79589;BME280;69067;51.930;4.492;2023-06-26T05:13:40;101409.22;;;31.07;35.60
79589;BME280;69067;51.930;4.492;2023-06-26T05:16:06;101424.75;;;31.13;35.63
79589;BME280;69067;51.930;4.492;2023-06-26T05:18:35;101413.41;;;31.09;35.78
79589;BME280;69067;51.930;4.492;2023-06-26T05:21:02;101426.56;;;31.07;35.62
79589;BME280;69067;51.930;4.492;2023-06-26T05:23:31;101421.66;;;31.09;36.10
79589;BME280;69067;51.930;4.492;2023-06-26T05:25:58;101418.22;;;30.90;36.48
79589;BME280;69067;51.930;4.492;2023-06-26T05:28:24;101436.59;;;31.02;35.85
79589;BME280;69067;51.930;4.492;2023-06-26T05:30:53;101449.41;;;31.08;35.77
79589;BME280;69067;51.930;4.492;2023-06-26T05:33:24;101453.00;;;31.08;35.94
79589;BME280;69067;51.930;4.492;2023-06-26T05:35:52;101468.91;;;31.06;36.21
79589;BME280;69067;51.930;4.492;2023-06-26T05:38:19;101472.72;;;31.05;35.43
79589;BME280;69067;51.930;4.492;2023-06-26T05:40:45;101474.66;;;31.05;35.00
79589;BME280;69067;51.930;4.492;2023-06-26T05:43:12;101469.63;;;31.02;35.54
79589;BME280;69067;51.930;4.492;2023-06-26T05:45:38;101474.50;;;31.00;35.42
79589;BME280;69067;51.930;4.492;2023-06-26T05:48:04;101487.19;;;31.01;34.74
79589;BME280;69067;51.930;4.492;2023-06-26T05:50:30;101489.00;;;30.95;34.92
79589;BME280;69067;51.930;4.492;2023-06-26T05:52:56;101483.28;;;30.97;35.34
79589;BME280;69067;51.930;4.492;2023-06-26T05:55:22;101490.19;;;30.99;34.77
79589;BME280;69067;51.930;4.492;2023-06-26T05:57:51;101476.09;;;30.96;34.91
79589;BME280;69067;51.930;4.492;2023-06-26T06:00:18;101481.09;;;30.99;33.95
79589;BME280;69067;51.930;4.492;2023-06-26T06:02:45;101479.06;;;30.94;34.99
79589;BME280;69067;51.930;4.492;2023-06-26T06:05:11;101478.25;;;30.93;34.88
79589;BME280;69067;51.930;4.492;2023-06-26T06:07:36;101486.72;;;30.92;34.71
79589;BME280;69067;51.930;4.492;2023-06-26T06:10:04;101510.78;;;30.97;34.65
79589;BME280;69067;51.930;4.492;2023-06-26T06:12:30;101509.09;;;30.96;34.28
79589;BME280;69067;51.930;4.492;2023-06-26T06:14:56;101512.22;;;30.87;34.22
79589;BME280;69067;51.930;4.492;2023-06-26T06:17:22;101515.69;;;30.95;34.19
79589;BME280;69067;51.930;4.492;2023-06-26T06:19:49;101503.13;;;30.87;34.14
79589;BME280;69067;51.930;4.492;2023-06-26T06:22:15;101530.63;;;30.87;34.51
79589;BME280;69067;51.930;4.492;2023-06-26T06:24:42;101543.06;;;30.89;34.71
79589;BME280;69067;51.930;4.492;2023-06-26T06:27:07;101539.72;;;30.87;34.75
79589;BME280;69067;51.930;4.492;2023-06-26T06:29:33;101541.88;;;30.85;33.93
79589;BME280;69067;51.930;4.492;2023-06-26T06:31:59;101538.28;;;30.85;34.44
79589;BME280;69067;51.930;4.492;2023-06-26T06:34:25;101553.94;;;30.84;33.68
79589;BME280;69067;51.930;4.492;2023-06-26T06:36:50;101557.78;;;30.83;33.88
79589;BME280;69067;51.930;4.492;2023-06-26T06:39:16;101544.75;;;30.79;34.27
79589;BME280;69067;51.930;4.492;2023-06-26T06:41:42;101542.94;;;30.73;33.83
79589;BME280;69067;51.930;4.492;2023-06-26T06:44:08;101553.97;;;30.73;33.92
79589;BME280;69067;51.930;4.492;2023-06-26T06:46:34;101563.03;;;30.73;33.54
79589;BME280;69067;51.930;4.492;2023-06-26T06:49:00;101564.00;;;30.67;33.07
79589;BME280;69067;51.930;4.492;2023-06-26T06:51:26;101563.63;;;30.64;33.33
79589;BME280;69067;51.930;4.492;2023-06-26T06:53:52;101567.72;;;30.61;33.06
79589;BME280;69067;51.930;4.492;2023-06-26T06:56:17;101577.03;;;30.60;32.24
79589;BME280;69067;51.930;4.492;2023-06-26T06:58:43;101577.13;;;30.53;32.22
79589;BME280;69067;51.930;4.492;2023-06-26T07:01:13;101589.44;;;30.51;31.89
79589;BME280;69067;51.930;4.492;2023-06-26T07:03:39;101590.34;;;30.45;31.29
79589;BME280;69067;51.930;4.492;2023-06-26T07:06:05;101565.50;;;30.28;31.55
79589;BME280;69067;51.930;4.492;2023-06-26T07:08:31;101590.13;;;30.35;31.47
79589;BME280;69067;51.930;4.492;2023-06-26T07:10:57;101584.94;;;30.27;30.56
79589;BME280;69067;51.930;4.492;2023-06-26T07:13:23;101589.38;;;30.28;30.47
79589;BME280;69067;51.930;4.492;2023-06-26T07:15:52;101593.53;;;30.19;31.00
79589;BME280;69067;51.930;4.492;2023-06-26T07:18:19;101598.41;;;30.17;30.72
79589;BME280;69067;51.930;4.492;2023-06-26T07:20:44;101594.56;;;30.06;31.22
79589;BME280;69067;51.930;4.492;2023-06-26T07:23:10;101602.41;;;30.02;31.77
79589;BME280;69067;51.930;4.492;2023-06-26T07:25:36;101602.75;;;29.94;31.53
79589;BME280;69067;51.930;4.492;2023-06-26T07:28:02;101606.59;;;29.93;31.88
79589;BME280;69067;51.930;4.492;2023-06-26T07:30:28;101610.59;;;29.91;32.43
79589;BME280;69067;51.930;4.492;2023-06-26T07:32:54;101613.78;;;29.88;32.10
79589;BME280;69067;51.930;4.492;2023-06-26T07:35:20;101626.09;;;29.85;31.97
79589;BME280;69067;51.930;4.492;2023-06-26T07:37:45;101623.66;;;29.77;31.77
79589;BME280;69067;51.930;4.492;2023-06-26T07:40:11;101627.88;;;29.80;31.85
79589;BME280;69067;51.930;4.492;2023-06-26T07:42:38;101619.31;;;29.69;31.97
79589;BME280;69067;51.930;4.492;2023-06-26T07:45:05;101627.19;;;29.66;31.68
79589;BME280;69067;51.930;4.492;2023-06-26T07:47:36;101628.47;;;29.63;32.36
79589;BME280;69067;51.930;4.492;2023-06-26T07:50:03;101629.25;;;29.52;32.23
79589;BME280;69067;51.930;4.492;2023-06-26T07:52:29;101640.84;;;29.54;32.56
79589;BME280;69067;51.930;4.492;2023-06-26T07:54:56;101644.63;;;29.53;32.24
79589;BME280;69067;51.930;4.492;2023-06-26T07:57:22;101647.84;;;29.50;32.32
79589;BME280;69067;51.930;4.492;2023-06-26T07:59:48;101648.31;;;29.47;32.75
79589;BME280;69067;51.930;4.492;2023-06-26T08:02:14;101647.94;;;29.44;32.68
79589;BME280;69067;51.930;4.492;2023-06-26T08:04:40;101658.69;;;29.45;32.64
79589;BME280;69067;51.930;4.492;2023-06-26T08:07:06;101654.94;;;29.40;32.75
79589;BME280;69067;51.930;4.492;2023-06-26T08:09:32;101650.06;;;29.42;32.74
79589;BME280;69067;51.930;4.492;2023-06-26T08:12:00;101654.47;;;29.43;32.29
79589;BME280;69067;51.930;4.492;2023-06-26T08:14:26;101657.66;;;29.40;32.93
79589;BME280;69067;51.930;4.492;2023-06-26T08:16:53;101653.53;;;29.30;32.42
79589;BME280;69067;51.930;4.492;2023-06-26T08:19:19;101662.34;;;29.32;32.45
79589;BME280;69067;51.930;4.492;2023-06-26T08:21:46;101670.91;;;29.24;32.12
79589;BME280;69067;51.930;4.492;2023-06-26T08:24:13;101676.41;;;29.24;33.04
79589;BME280;69067;51.930;4.492;2023-06-26T08:26:45;101670.91;;;29.24;32.67
79589;BME280;69067;51.930;4.492;2023-06-26T08:29:12;101681.25;;;29.22;32.45
79589;BME280;69067;51.930;4.492;2023-06-26T08:31:39;101678.50;;;29.22;32.40
79589;BME280;69067;51.930;4.492;2023-06-26T08:34:06;101676.06;;;29.14;32.41
79589;BME280;69067;51.930;4.492;2023-06-26T08:36:32;101667.94;;;29.01;32.49
79589;BME280;69067;51.930;4.492;2023-06-26T08:38:59;101678.44;;;29.11;32.32
79589;BME280;69067;51.930;4.492;2023-06-26T08:41:24;101674.50;;;29.00;32.82
79589;BME280;69067;51.930;4.492;2023-06-26T08:43:50;101683.50;;;29.07;32.92
79589;BME280;69067;51.930;4.492;2023-06-26T08:46:19;101688.38;;;29.05;32.43
79589;BME280;69067;51.930;4.492;2023-06-26T08:49:01;101684.19;;;29.03;32.92
79589;BME280;69067;51.930;4.492;2023-06-26T08:51:33;101684.34;;;29.08;32.67
79589;BME280;69067;51.930;4.492;2023-06-26T08:54:07;101676.97;;;29.08;32.32
79589;BME280;69067;51.930;4.492;2023-06-26T08:56:42;101671.53;;;29.02;32.74
79589;BME280;69067;51.930;4.492;2023-06-26T08:59:10;101694.63;;;29.12;32.56
79589;BME280;69067;51.930;4.492;2023-06-26T09:01:38;101702.50;;;29.09;32.62
79589;BME280;69067;51.930;4.492;2023-06-26T09:04:05;101685.41;;;29.07;32.62
79589;BME280;69067;51.930;4.492;2023-06-26T09:06:31;101694.69;;;29.06;32.35
79589;BME280;69067;51.930;4.492;2023-06-26T09:08:56;101699.34;;;29.05;32.90
79589;BME280;69067;51.930;4.492;2023-06-26T09:11:22;101702.72;;;29.07;32.12
79589;BME280;69067;51.930;4.492;2023-06-26T09:13:48;101698.56;;;28.98;32.64
79589;BME280;69067;51.930;4.492;2023-06-26T09:16:14;101705.66;;;29.06;32.31
79589;BME280;69067;51.930;4.492;2023-06-26T09:18:41;101718.59;;;28.98;32.41
79589;BME280;69067;51.930;4.492;2023-06-26T09:21:11;101710.03;;;28.88;32.18
79589;BME280;69067;51.930;4.492;2023-06-26T09:23:39;101717.59;;;28.93;32.19
79589;BME280;69067;51.930;4.492;2023-06-26T09:26:06;101724.13;;;28.92;32.31
79589;BME280;69067;51.930;4.492;2023-06-26T09:28:33;101731.31;;;28.93;32.19
79589;BME280;69067;51.930;4.492;2023-06-26T09:31:04;101731.97;;;28.88;32.27
79589;BME280;69067;51.930;4.492;2023-06-26T09:33:36;101734.88;;;28.93;32.32
79589;BME280;69067;51.930;4.492;2023-06-26T09:36:19;101744.38;;;28.91;32.45
79589;BME280;69067;51.930;4.492;2023-06-26T09:38:47;101741.22;;;28.94;32.23
79589;BME280;69067;51.930;4.492;2023-06-26T09:41:18;101733.66;;;28.89;32.63
79589;BME280;69067;51.930;4.492;2023-06-26T09:43:49;101750.06;;;28.96;32.53
79589;BME280;69067;51.930;4.492;2023-06-26T09:46:26;101741.03;;;28.89;32.52
79589;BME280;69067;51.930;4.492;2023-06-26T09:49:09;101741.47;;;28.86;32.40
79589;BME280;69067;51.930;4.492;2023-06-26T09:51:39;101733.72;;;28.83;32.52
79589;BME280;69067;51.930;4.492;2023-06-26T09:54:07;101755.66;;;28.83;32.55
79589;BME280;69067;51.930;4.492;2023-06-26T09:56:34;101767.47;;;28.83;32.34
79589;BME280;69067;51.930;4.492;2023-06-26T09:59:02;101754.19;;;28.80;32.37
79589;BME280;69067;51.930;4.492;2023-06-26T10:01:30;101775.94;;;28.75;33.04
79589;BME280;69067;51.930;4.492;2023-06-26T10:03:57;101769.16;;;28.78;32.57
79589;BME280;69067;51.930;4.492;2023-06-26T10:06:56;101764.53;;;28.72;32.73
79589;BME280;69067;51.930;4.492;2023-06-26T10:09:23;101757.75;;;28.81;32.79
79589;BME280;69067;51.930;4.492;2023-06-26T10:12:02;101778.22;;;28.78;32.89
79589;BME280;69067;51.930;4.492;2023-06-26T10:14:35;101785.19;;;28.74;32.88
79589;BME280;69067;51.930;4.492;2023-06-26T10:17:04;101789.41;;;28.77;32.99
79589;BME280;69067;51.930;4.492;2023-06-26T10:19:35;101770.00;;;28.78;32.99
79589;BME280;69067;51.930;4.492;2023-06-26T10:22:03;101766.88;;;28.75;32.76
79589;BME280;69067;51.930;4.492;2023-06-26T10:24:33;101769.16;;;28.78;33.14
79589;BME280;69067;51.930;4.492;2023-06-26T10:27:16;101791.28;;;28.83;32.79
79589;BME280;69067;51.930;4.492;2023-06-26T10:29:56;101796.13;;;28.81;32.96
79589;BME280;69067;51.930;4.492;2023-06-26T10:32:27;101789.03;;;28.67;32.53
79589;BME280;69067;51.930;4.492;2023-06-26T10:34:55;101784.78;;;28.71;32.26
79589;BME280;69067;51.930;4.492;2023-06-26T10:37:47;101811.75;;;28.80;32.48
79589;BME280;69067;51.930;4.492;2023-06-26T10:40:20;101801.63;;;28.81;32.00
79589;BME280;69067;51.930;4.492;2023-06-26T10:42:47;101803.97;;;28.71;31.30
79589;BME280;69067;51.930;4.492;2023-06-26T10:45:21;101806.09;;;28.69;31.16
79589;BME280;69067;51.930;4.492;2023-06-26T10:47:48;101802.94;;;28.65;31.14
79589;BME280;69067;51.930;4.492;2023-06-26T10:55:57;101803.97;;;28.71;30.96
79589;BME280;69067;51.930;4.492;2023-06-26T11:03:46;101833.56;;;28.55;30.23
79589;BME280;69067;51.930;4.492;2023-06-26T11:06:20;101826.63;;;28.53;30.52
79589;BME280;69067;51.930;4.492;2023-06-26T11:08:55;101839.88;;;28.63;30.61
79589;BME280;69067;51.930;4.492;2023-06-26T11:14:23;101828.47;;;28.59;31.39
79589;BME280;69067;51.930;4.492;2023-06-26T11:16:50;101832.25;;;28.65;30.68
79589;BME280;69067;51.930;4.492;2023-06-26T11:19:18;101820.91;;;28.61;30.78
79589;BME280;69067;51.930;4.492;2023-06-26T11:21:45;101847.00;;;28.64;30.53
79589;BME280;69067;51.930;4.492;2023-06-26T11:24:12;101856.91;;;28.65;30.44
79589;BME280;69067;51.930;4.492;2023-06-26T11:26:45;101869.53;;;28.72;30.50
79589;BME280;69067;51.930;4.492;2023-06-26T11:29:12;101851.44;;;28.65;30.71
79589;BME280;69067;51.930;4.492;2023-06-26T11:31:40;101854.16;;;28.65;30.83
79589;BME280;69067;51.930;4.492;2023-06-26T11:34:09;101862.19;;;28.66;30.21
79589;BME280;69067;51.930;4.492;2023-06-26T11:36:38;101863.03;;;28.67;30.83
79589;BME280;69067;51.930;4.492;2023-06-26T11:39:07;101868.94;;;28.64;31.00
79589;BME280;69067;51.930;4.492;2023-06-26T11:41:36;101870.63;;;28.65;30.54
79589;BME280;69067;51.930;4.492;2023-06-26T11:44:04;101886.47;;;28.63;30.84
79589;BME280;69067;51.930;4.492;2023-06-26T11:46:33;101870.00;;;28.56;30.71
79589;BME280;69067;51.930;4.492;2023-06-26T11:48:59;101874.06;;;28.53;30.56
79589;BME280;69067;51.930;4.492;2023-06-26T11:51:28;101893.88;;;28.55;30.58
79589;BME280;69067;51.930;4.492;2023-06-26T11:53:54;101896.84;;;28.47;30.25
79589;BME280;69067;51.930;4.492;2023-06-26T11:56:20;101898.91;;;28.52;30.37
79589;BME280;69067;51.930;4.492;2023-06-26T12:01:41;101892.63;;;28.45;29.83
79589;BME280;69067;51.930;4.492;2023-06-26T12:04:12;101889.47;;;28.48;30.07
79589;BME280;69067;51.930;4.492;2023-06-26T12:06:45;101878.53;;;28.41;30.44
79589;BME280;69067;51.930;4.492;2023-06-26T12:09:14;101891.59;;;28.39;30.04
79589;BME280;69067;51.930;4.492;2023-06-26T12:11:42;101892.00;;;28.36;30.15
79589;BME280;69067;51.930;4.492;2023-06-26T12:14:10;101889.03;;;28.44;30.21
79589;BME280;69067;51.930;4.492;2023-06-26T12:16:37;101905.91;;;28.48;30.27
79589;BME280;69067;51.930;4.492;2023-06-26T12:19:06;101904.44;;;28.45;30.13
79589;BME280;69067;51.930;4.492;2023-06-26T12:24:13;101898.75;;;28.40;30.20
79589;BME280;69067;51.930;4.492;2023-06-26T12:26:45;101903.78;;;28.43;30.04
79589;BME280;69067;51.930;4.492;2023-06-26T12:29:14;101912.63;;;28.52;30.11
79589;BME280;69067;51.930;4.492;2023-06-26T12:32:01;101906.94;;;28.53;30.08
79589;BME280;69067;51.930;4.492;2023-06-26T12:34:32;101910.09;;;28.50;29.58
79589;BME280;69067;51.930;4.492;2023-06-26T12:37:01;101900.19;;;28.49;29.82
79589;BME280;69067;51.930;4.492;2023-06-26T12:39:29;101907.56;;;28.55;30.21
79589;BME280;69067;51.930;4.492;2023-06-26T12:42:00;101921.69;;;28.52;29.91
79589;BME280;69067;51.930;4.492;2023-06-26T12:44:30;101908.84;;;28.53;30.31
79589;BME280;69067;51.930;4.492;2023-06-26T12:46:59;101902.50;;;28.52;30.35
79589;BME280;69067;51.930;4.492;2023-06-26T12:49:38;101907.34;;;28.50;30.12
79589;BME280;69067;51.930;4.492;2023-06-26T12:52:07;101909.84;;;28.58;30.08
79589;BME280;69067;51.930;4.492;2023-06-26T12:54:36;101908.84;;;28.46;30.02
79589;BME280;69067;51.930;4.492;2023-06-26T12:57:03;101906.97;;;28.40;29.62
79589;BME280;69067;51.930;4.492;2023-06-26T12:59:30;101909.50;;;28.42;30.04
79589;BME280;69067;51.930;4.492;2023-06-26T13:01:57;101918.31;;;28.50;29.98
79589;BME280;69067;51.930;4.492;2023-06-26T13:04:24;101921.28;;;28.55;30.43
79589;BME280;69067;51.930;4.492;2023-06-26T13:06:50;101911.41;;;28.41;29.72
79589;BME280;69067;51.930;4.492;2023-06-26T13:09:17;101892.47;;;28.33;30.13
79589;BME280;69067;51.930;4.492;2023-06-26T13:11:43;101924.84;;;28.49;29.24
79589;BME280;69067;51.930;4.492;2023-06-26T13:14:10;101930.13;;;28.51;29.53
79589;BME280;69067;51.930;4.492;2023-06-26T13:16:36;101910.53;;;28.47;29.46
79589;BME280;69067;51.930;4.492;2023-06-26T13:19:02;101905.66;;;28.49;29.73
79589;BME280;69067;51.930;4.492;2023-06-26T13:21:28;101915.16;;;28.53;29.98
79589;BME280;69067;51.930;4.492;2023-06-26T13:23:55;101909.25;;;28.50;29.63
79589;BME280;69067;51.930;4.492;2023-06-26T13:26:22;101909.94;;;28.39;30.04